Time;durP1;ratioP1;P1;durP2;ratioP2;P2;SDS_P1;SDS_P2;PMS_P1;PMS_P2;Temp;Humidity;BMP_temperature;BMP_pressure;BME280_temperature;BME280_humidity;BME280_pressure;Samples;Min_cycle;Max_cycle;Signal;HPM_P1;HPM_P2
2022/07/19 00:01:17;;;;;;;18.60;16.70;;;;;;;22.89;50.32;101597.78;5058091;28;20491;-73
2022/07/19 00:03:43;;;;;;;12.70;11.50;;;;;;;22.85;49.74;101590.81;5057985;28;20407;-75
2022/07/19 00:06:08;;;;;;;12.83;11.53;;;;;;;22.85;49.89;101591.69;5057412;28;20538;-76
2022/07/19 00:08:33;;;;;;;12.90;11.70;;;;;;;22.76;50.36;101599.03;5057789;28;20240;-78
2022/07/19 00:10:59;;;;;;;15.50;14.00;;;;;;;22.58;51.07;101601.28;5057823;28;20161;-77
2022/07/19 00:13:24;;;;;;;13.40;12.10;;;;;;;22.56;51.13;101603.13;5058102;28;20223;-78
2022/07/19 00:15:50;;;;;;;14.07;12.67;;;;;;;22.42;51.51;101602.59;5057900;28;20468;-77
2022/07/19 00:18:15;;;;;;;18.33;12.40;;;;;;;22.47;51.43;101600.69;5058126;28;20169;-78
2022/07/19 00:20:40;;;;;;;17.20;15.50;;;;;;;22.35;52.28;101600.13;5058516;28;20230;-77
2022/07/19 00:23:06;;;;;;;17.57;15.93;;;;;;;22.25;52.52;101600.38;5057539;28;20219;-75
2022/07/19 00:25:31;;;;;;;12.60;11.30;;;;;;;22.33;51.52;101590.41;5057823;28;20256;-76
2022/07/19 00:27:56;;;;;;;12.40;11.30;;;;;;;22.32;51.82;101592.19;5058348;28;20450;-78
2022/07/19 00:30:22;;;;;;;15.37;11.80;;;;;;;22.29;51.54;101596.72;5057954;28;20197;-77
2022/07/19 00:32:47;;;;;;;12.47;11.27;;;;;;;22.41;50.64;101591.13;5057500;28;20205;-78
2022/07/19 00:35:13;;;;;;;13.00;11.70;;;;;;;22.64;49.32;101589.63;5057968;28;20165;-78
2022/07/19 00:37:38;;;;;;;12.63;11.37;;;;;;;22.44;49.93;101596.34;5057687;28;20295;-79
2022/07/19 00:40:04;;;;;;;13.57;12.30;;;;;;;22.50;50.70;101590.88;5057711;28;20169;-77
2022/07/19 00:42:29;;;;;;;12.47;10.83;;;;;;;22.49;50.69;101598.88;5058196;28;20519;-77
2022/07/19 00:44:55;;;;;;;12.37;11.17;;;;;;;22.32;50.76;101597.50;5056795;28;20527;-77
2022/07/19 00:47:21;;;;;;;11.00;9.90;;;;;;;22.61;49.62;101597.66;5057583;28;20173;-77
2022/07/19 00:49:47;;;;;;;20.60;11.07;;;;;;;22.45;50.16;101597.22;5058101;28;20459;-77
2022/07/19 00:52:14;;;;;;;12.23;11.03;;;;;;;22.62;49.47;101599.41;5057504;28;20463;-78
2022/07/19 00:54:41;;;;;;;15.40;11.20;;;;;;;22.41;50.93;101601.75;5057230;28;20217;-78
2022/07/19 00:57:06;;;;;;;15.97;11.07;;;;;;;22.02;51.81;101602.66;5057278;28;20811;-78
2022/07/19 00:59:32;;;;;;;11.17;10.17;;;;;;;22.08;51.40;101598.13;5058154;28;20394;-77
2022/07/19 01:01:58;;;;;;;12.47;11.37;;;;;;;21.97;52.80;101603.69;5057447;28;20193;-77
2022/07/19 01:04:24;;;;;;;11.63;10.43;;;;;;;22.08;51.94;101595.47;5057593;28;20427;-78
2022/07/19 01:06:49;;;;;;;11.03;10.00;;;;;;;22.35;50.79;101592.16;5056888;28;20427;-78
2022/07/19 01:09:14;;;;;;;12.63;10.50;;;;;;;22.48;49.78;101589.16;5057412;28;20551;-78
2022/07/19 01:11:40;;;;;;;13.17;10.20;;;;;;;22.50;49.86;101596.19;5058070;28;20259;-79
2022/07/19 01:14:05;;;;;;;10.97;9.70;;;;;;;22.47;49.85;101606.88;5057182;28;20264;-78
2022/07/19 01:16:31;;;;;;;13.93;10.10;;;;;;;22.56;49.33;101591.63;5057433;28;20173;-77
2022/07/19 01:18:56;;;;;;;10.80;9.70;;;;;;;22.61;49.42;101589.69;5061582;28;20484;-77
2022/07/19 01:21:23;;;;;;;10.70;9.60;;;;;;;22.61;49.14;101587.03;5061090;28;20179;-75
2022/07/19 01:23:49;;;;;;;11.00;10.00;;;;;;;22.56;49.29;101588.97;5060300;28;20176;-77
2022/07/19 01:26:15;;;;;;;12.07;10.97;;;;;;;22.67;49.34;101589.53;5060921;28;20416;-75
2022/07/19 01:28:41;;;;;;;13.77;10.23;;;;;;;22.67;49.35;101592.19;5066403;28;20162;-78
2022/07/19 01:31:06;;;;;;;12.00;10.70;;;;;;;22.54;49.31;101595.19;5067618;28;20390;-77
2022/07/19 01:33:31;;;;;;;11.47;10.27;;;;;;;22.20;50.78;101606.66;5067623;28;20176;-76
2022/07/19 01:35:57;;;;;;;11.53;10.47;;;;;;;21.98;52.14;101605.44;5062240;28;20268;-77
2022/07/19 01:38:22;;;;;;;13.73;10.53;;;;;;;22.27;50.65;101603.84;5061050;28;20174;-76
2022/07/19 01:40:48;;;;;;;11.97;10.67;;;;;;;21.85;52.64;101604.84;5061390;28;20177;-77
2022/07/19 01:43:13;;;;;;;11.33;10.20;;;;;;;21.94;52.33;101606.44;5060777;28;20434;-78
2022/07/19 01:45:39;;;;;;;11.90;10.77;;;;;;;22.14;51.96;101609.47;5060813;28;20256;-77
2022/07/19 01:48:05;;;;;;;12.10;10.70;;;;;;;21.96;52.25;101593.97;5060966;28;20165;-76
2022/07/19 01:50:30;;;;;;;12.07;10.50;;;;;;;22.04;52.17;101600.88;5060466;28;20492;-76
2022/07/19 01:52:56;;;;;;;12.03;10.60;;;;;;;21.80;53.19;101594.34;5060185;28;20463;-78
2022/07/19 01:55:21;;;;;;;13.20;11.23;;;;;;;21.70;53.74;101596.38;5060784;28;20257;-77
2022/07/19 01:57:48;;;;;;;12.00;10.90;;;;;;;21.68;53.36;101592.00;5060585;28;20209;-76
2022/07/19 02:00:13;;;;;;;11.63;10.37;;;;;;;21.55;53.83;101598.50;5059796;28;20185;-76
2022/07/19 02:02:39;;;;;;;19.43;10.80;;;;;;;21.66;53.94;101591.16;5060640;28;20412;-77
2022/07/19 02:05:05;;;;;;;12.13;10.90;;;;;;;21.33;54.39;101590.97;5060020;28;20201;-76
2022/07/19 02:07:31;;;;;;;11.97;10.77;;;;;;;21.42;54.64;101588.13;5060189;28;20177;-77
2022/07/19 02:09:57;;;;;;;11.23;10.10;;;;;;;21.23;55.40;101586.75;5060607;28;20404;-77
2022/07/19 02:12:22;;;;;;;11.50;10.40;;;;;;;21.69;54.16;101583.13;5059907;28;20190;-77
2022/07/19 02:14:48;;;;;;;12.00;10.87;;;;;;;21.78;53.82;101590.00;5060049;28;20444;-76
2022/07/19 02:17:13;;;;;;;11.40;10.30;;;;;;;21.58;54.30;101593.09;5060606;28;20162;-77
2022/07/19 02:19:38;;;;;;;11.80;10.77;;;;;;;21.25;55.67;101584.97;5060042;28;20173;-77
2022/07/19 02:22:04;;;;;;;11.53;10.30;;;;;;;21.32;55.76;101587.44;5060251;28;20177;-77
2022/07/19 02:24:29;;;;;;;11.93;10.83;;;;;;;21.41;55.81;101583.72;5060513;28;20184;-76
2022/07/19 02:26:54;;;;;;;12.20;10.73;;;;;;;21.24;56.11;101583.22;5059795;28;20185;-76
2022/07/19 02:29:20;;;;;;;12.37;10.30;;;;;;;20.97;56.56;101585.53;5058946;28;20527;-76
2022/07/19 02:31:45;;;;;;;11.47;10.43;;;;;;;20.95;56.78;101587.34;5059880;28;20220;-75
2022/07/19 02:34:11;;;;;;;11.63;10.50;;;;;;;21.12;55.91;101574.63;5059430;28;20188;-77
2022/07/19 02:36:36;;;;;;;12.53;11.33;;;;;;;21.30;55.91;101573.34;5059625;28;20224;-76
2022/07/19 02:39:02;;;;;;;11.20;10.10;;;;;;;21.17;55.53;101579.81;5059871;28;20413;-76
2022/07/19 02:41:27;;;;;;;13.07;11.57;;;;;;;20.91;57.91;101583.88;5059590;28;20169;-76
2022/07/19 02:43:53;;;;;;;12.33;11.13;;;;;;;21.09;56.44;101584.41;5059381;28;20181;-77
2022/07/19 02:46:18;;;;;;;12.20;11.00;;;;;;;20.92;57.08;101588.28;5059879;28;20509;-77
2022/07/19 02:48:43;;;;;;;13.50;10.90;;;;;;;20.91;57.01;101590.97;5059358;28;20253;-76
2022/07/19 02:51:12;;;;;;;12.90;11.40;;;;;;;20.84;57.74;101596.38;5059354;28;20173;-77
2022/07/19 02:53:38;;;;;;;12.77;11.03;;;;;;;20.93;57.46;101594.44;5059626;28;20236;-75
2022/07/19 02:56:04;;;;;;;12.57;11.27;;;;;;;20.95;57.68;101592.66;5059282;28;20416;-76
2022/07/19 02:58:29;;;;;;;15.50;11.57;;;;;;;20.91;57.50;101596.28;5059376;28;20531;-76
2022/07/19 03:00:54;;;;;;;17.77;12.17;;;;;;;20.76;59.39;101594.78;5059230;28;20192;-75
2022/07/19 03:06:04;;;;;;;11.00;10.00;;;;;;;20.77;58.45;101608.00;5058995;28;20211;-77
2022/07/19 03:08:29;;;;;;;12.07;10.87;;;;;;;20.91;57.55;101597.13;5059018;28;20673;-77
2022/07/19 03:10:54;;;;;;;12.97;11.20;;;;;;;20.68;58.71;101594.91;5059415;28;20170;-77
2022/07/19 03:13:20;;;;;;;11.80;10.60;;;;;;;20.83;58.72;101604.38;5058933;28;20569;-76
2022/07/19 03:15:45;;;;;;;12.50;11.40;;;;;;;20.65;58.96;101606.41;5058796;28;20495;-76
2022/07/19 03:18:10;;;;;;;13.43;10.70;;;;;;;20.68;59.15;101613.44;5059378;28;20162;-76
2022/07/19 03:20:36;;;;;;;14.07;12.67;;;;;;;20.46;59.69;101605.88;5058888;28;20184;-76
2022/07/19 03:23:01;;;;;;;15.53;12.60;;;;;;;20.52;59.83;101603.09;5058828;28;20170;-77
2022/07/19 03:25:27;;;;;;;13.30;12.13;;;;;;;20.69;59.75;101599.34;5059056;28;20169;-76
2022/07/19 03:27:53;;;;;;;14.03;11.87;;;;;;;20.52;59.69;101603.09;5058653;28;20874;-76
2022/07/19 03:30:18;;;;;;;13.17;11.97;;;;;;;20.20;61.44;101606.31;5058522;28;20193;-76
2022/07/19 03:32:44;;;;;;;12.93;11.67;;;;;;;20.51;61.12;101609.34;5058715;28;20550;-76
2022/07/19 03:35:09;;;;;;;13.10;11.43;;;;;;;20.39;60.67;101608.66;5058477;28;20181;-76
2022/07/19 03:37:35;;;;;;;14.33;12.93;;;;;;;20.71;60.35;101602.81;5058534;28;20523;-76
2022/07/19 03:40:00;;;;;;;13.40;12.10;;;;;;;20.26;62.02;101597.41;5059113;28;20181;-76
2022/07/19 03:42:26;;;;;;;14.23;12.57;;;;;;;20.72;60.80;101596.63;5058769;28;20474;-76
2022/07/19 03:44:51;;;;;;;13.13;11.73;;;;;;;20.74;60.67;101592.16;5058287;28;20282;-76
2022/07/19 03:47:16;;;;;;;16.90;12.40;;;;;;;20.86;59.99;101599.88;5058877;28;20272;-76
2022/07/19 03:49:42;;;;;;;14.53;13.10;;;;;;;20.55;60.74;101598.66;5058417;28;20180;-76
2022/07/19 03:52:07;;;;;;;13.17;11.87;;;;;;;20.85;60.24;101603.44;5058213;28;20255;-76
2022/07/19 03:54:33;;;;;;;13.90;12.60;;;;;;;20.82;59.96;101606.16;5058200;28;20225;-77
2022/07/19 03:56:58;;;;;;;13.70;12.40;;;;;;;20.94;59.47;101612.97;5058248;28;20188;-76
2022/07/19 03:59:23;;;;;;;13.17;11.83;;;;;;;21.39;59.11;101609.38;5058279;28;20531;-75
2022/07/19 04:01:50;;;;;;;14.17;12.50;;;;;;;22.26;56.55;101599.44;5058021;28;20196;-76
2022/07/19 04:04:15;;;;;;;13.20;11.90;;;;;;;23.15;53.76;101610.38;5057837;28;20189;-77
2022/07/19 04:06:41;;;;;;;12.43;11.23;;;;;;;23.06;53.61;101605.28;5058411;28;20573;-77
2022/07/19 04:09:06;;;;;;;15.57;12.60;;;;;;;23.04;52.89;101604.44;5058111;28;20177;-77
2022/07/19 04:11:31;;;;;;;13.87;12.47;;;;;;;23.84;51.25;101599.41;5057870;28;20212;-77
2022/07/19 04:13:57;;;;;;;12.60;11.40;;;;;;;24.94;49.29;101601.00;5058087;28;20629;-77
2022/07/19 04:16:22;;;;;;;13.63;12.20;;;;;;;24.93;49.12;101604.59;5057835;28;20519;-73
2022/07/19 04:18:48;;;;;;;13.33;12.03;;;;;;;25.47;47.25;101602.59;5057813;28;20197;-79
2022/07/19 04:21:13;;;;;;;13.27;11.57;;;;;;;25.27;48.16;101599.78;5058395;28;20173;-77
2022/07/19 04:23:38;;;;;;;12.17;11.07;;;;;;;25.94;46.87;101593.59;5057801;28;20188;-76
2022/07/19 04:26:04;;;;;;;13.93;11.97;;;;;;;25.89;46.53;101604.44;5058031;28;20177;-77
2022/07/19 04:28:29;;;;;;;13.33;12.03;;;;;;;26.04;46.40;101602.97;5058263;28;20211;-76
2022/07/19 04:30:54;;;;;;;12.37;11.23;;;;;;;25.85;46.30;101602.00;5057880;28;20181;-77
2022/07/19 04:33:20;;;;;;;13.10;11.90;;;;;;;25.54;47.40;101600.53;5037791;28;20174;-74
2022/07/19 04:35:45;;;;;;;12.47;11.17;;;;;;;25.76;47.06;101603.22;5038223;28;20208;-73
2022/07/19 04:38:11;;;;;;;12.50;11.30;;;;;;;25.94;46.33;101606.06;5037700;28;20178;-74
2022/07/19 04:40:37;;;;;;;12.13;11.00;;;;;;;26.13;45.84;101608.88;5037618;28;20248;-75
2022/07/19 04:43:02;;;;;;;12.47;11.23;;;;;;;26.26;45.60;101604.75;5038600;28;20516;-74
2022/07/19 04:45:28;;;;;;;13.43;12.30;;;;;;;27.27;43.04;101601.19;5037655;28;20540;-73
2022/07/19 04:47:53;;;;;;;12.67;11.03;;;;;;;27.16;42.97;101606.19;5037581;28;20178;-73
2022/07/19 04:50:19;;;;;;;12.00;10.87;;;;;;;27.38;42.87;101603.38;5038086;28;20563;-72
2022/07/19 04:52:44;;;;;;;11.50;10.30;;;;;;;26.78;43.90;101607.00;5039601;28;20280;-74
2022/07/19 04:55:09;;;;;;;11.53;10.43;;;;;;;27.20;42.43;101605.09;5041530;28;20226;-74
2022/07/19 04:57:35;;;;;;;17.13;10.70;;;;;;;27.69;40.76;101601.91;5042287;28;20173;-72
2022/07/19 05:00:03;;;;;;;11.83;10.73;;;;;;;27.37;42.99;101598.97;5041292;28;20259;-72
2022/07/19 05:02:28;;;;;;;10.70;9.60;;;;;;;26.73;42.78;101600.97;5040669;28;20178;-73
2022/07/19 05:04:53;;;;;;;12.60;10.30;;;;;;;27.62;40.00;101595.13;5041757;28;20467;-72
2022/07/19 05:07:19;;;;;;;11.13;9.90;;;;;;;28.10;39.20;101599.00;5041349;28;20163;-72
2022/07/19 05:09:44;;;;;;;10.80;9.90;;;;;;;27.32;41.68;101603.63;5041196;28;20170;-76
2022/07/19 05:12:10;;;;;;;11.77;10.70;;;;;;;27.86;40.93;101599.28;5041208;28;20186;-76
2022/07/19 05:14:36;;;;;;;11.23;9.37;;;;;;;28.54;39.02;101592.31;5059209;28;20170;-75
2022/07/19 05:17:01;;;;;;;10.63;9.70;;;;;;;29.30;37.65;101590.97;5061234;28;20422;-83
2022/07/19 05:19:27;;;;;;;11.40;10.30;;;;;;;29.94;36.04;101593.63;5061558;28;20176;-78
2022/07/19 05:21:52;;;;;;;11.10;9.90;;;;;;;28.75;37.90;101595.69;5060999;28;20219;-80
2022/07/19 05:24:17;;;;;;;10.60;9.57;;;;;;;29.47;36.52;101590.88;5060900;28;20224;-79
2022/07/19 05:26:43;;;;;;;9.43;8.60;;;;;;;30.14;34.99;101590.59;5061028;28;20211;-80
2022/07/19 05:29:08;;;;;;;9.80;8.50;;;;;;;29.92;35.93;101590.16;5060782;28;20188;-78
2022/07/19 05:31:34;;;;;;;9.60;8.40;;;;;;;30.62;34.13;101581.50;5059896;28;20197;-72
2022/07/19 05:33:59;;;;;;;12.67;7.50;;;;;;;30.99;33.41;101592.66;5060894;28;20189;-72
2022/07/19 05:36:25;;;;;;;8.63;7.83;;;;;;;31.42;32.33;101579.16;5060615;28;20177;-72
2022/07/19 05:38:51;;;;;;;10.43;8.03;;;;;;;31.56;32.16;101592.56;5060434;28;20224;-73
2022/07/19 05:41:17;;;;;;;8.57;6.97;;;;;;;31.22;32.38;101589.38;5060892;28;20409;-73
2022/07/19 05:43:43;;;;;;;8.53;7.20;;;;;;;31.99;30.89;101586.19;5060268;28;20435;-73
2022/07/19 05:46:09;;;;;;;8.10;7.40;;;;;;;32.68;29.99;101590.50;5060439;28;20416;-73
2022/07/19 05:48:34;;;;;;;8.77;8.03;;;;;;;32.19;30.14;101584.84;5060690;28;20162;-73
2022/07/19 05:51:00;;;;;;;12.57;7.90;;;;;;;33.63;27.96;101588.16;5060502;28;20166;-76
2022/07/19 05:53:25;;;;;;;8.00;7.30;;;;;;;32.51;29.17;101587.13;5059386;28;20221;-75
2022/07/19 05:55:54;;;;;;;11.43;7.13;;;;;;;33.57;27.48;101588.59;5060575;28;20161;-76
2022/07/19 05:58:19;;;;;;;7.97;7.17;;;;;;;31.95;29.46;101584.66;5060108;28;20314;-76
2022/07/19 06:01:31;;;;;;;8.27;7.03;;;;;;;32.83;28.92;101584.03;5060124;28;20491;-74
2022/07/19 06:03:31;;;;;;;8.87;7.03;;;;;;;32.68;28.97;101590.50;5051640;28;20459;-76
2022/07/19 06:05:56;;;;;;;8.40;7.60;;;;;;;33.70;28.14;101583.13;5060044;28;20439;-76
2022/07/19 06:08:22;;;;;;;7.97;7.23;;;;;;;32.70;29.93;101584.03;5060107;28;20642;-75
2022/07/19 06:10:48;;;;;;;9.23;7.40;;;;;;;33.29;28.61;101585.25;5059923;28;20192;-76
2022/07/19 06:13:13;;;;;;;9.23;8.13;;;;;;;33.66;28.23;101581.66;5059586;28;20212;-74
2022/07/19 06:15:38;;;;;;;12.13;8.17;;;;;;;31.85;30.60;101579.03;5059775;28;20252;-73
2022/07/19 06:18:04;;;;;;;10.30;8.23;;;;;;;34.06;27.92;101584.91;5059939;28;20170;-73
2022/07/19 06:20:29;;;;;;;12.60;8.53;;;;;;;33.47;28.24;101588.41;5060420;28;20239;-74
2022/07/19 06:22:55;;;;;;;16.90;9.20;;;;;;;34.50;27.04;101587.84;5059819;28;20256;-73
2022/07/19 06:25:20;;;;;;;10.27;8.50;;;;;;;34.85;26.61;101586.06;5059450;28;20188;-74
2022/07/19 06:27:45;;;;;;;9.90;8.90;;;;;;;33.47;27.40;101591.13;5059891;28;20249;-74
2022/07/19 06:30:11;;;;;;;12.97;8.80;;;;;;;34.01;27.58;101594.38;5059693;28;20170;-73
2022/07/19 06:32:36;;;;;;;14.00;9.00;;;;;;;34.06;27.91;101600.28;5059447;28;20205;-73
2022/07/19 06:35:01;;;;;;;17.93;8.60;;;;;;;34.36;27.67;101597.06;5059986;28;20534;-73
2022/07/19 06:37:27;;;;;;;11.00;9.70;;;;;;;33.58;28.01;101609.25;5059396;28;20176;-74
2022/07/19 06:39:52;;;;;;;9.63;8.57;;;;;;;33.47;28.62;101598.38;5059506;28;20177;-74
2022/07/19 06:42:17;;;;;;;12.10;8.97;;;;;;;34.17;27.45;101597.59;5059732;28;20162;-74
2022/07/19 06:44:43;;;;;;;15.03;8.07;;;;;;;33.87;27.79;101607.09;5059110;28;20176;-74
2022/07/19 06:47:08;;;;;;;9.43;8.43;;;;;;;33.67;28.65;101610.41;5059342;28;20244;-74
2022/07/19 06:49:34;;;;;;;18.87;9.80;;;;;;;33.10;29.57;101599.22;5059595;28;20252;-74
2022/07/19 06:52:01;;;;;;;12.53;9.03;;;;;;;35.61;26.91;101602.47;5058916;28;20216;-75
2022/07/19 06:54:26;;;;;;;10.13;8.13;;;;;;;34.91;27.35;101608.09;5058725;28;20312;-74
2022/07/19 06:56:53;;;;;;;13.00;7.80;;;;;;;35.76;25.59;101603.03;5059389;28;20618;-75
2022/07/19 06:59:19;;;;;;;14.40;8.13;;;;;;;34.82;26.51;101608.84;5059094;28;20252;-74
2022/07/19 07:01:44;;;;;;;12.37;8.00;;;;;;;33.76;27.82;101609.72;5058582;28;20781;-73
2022/07/19 07:04:09;;;;;;;9.83;7.60;;;;;;;35.59;25.82;101604.47;5059331;28;20689;-75
2022/07/19 07:06:35;;;;;;;13.70;8.17;;;;;;;35.54;26.03;101604.81;5059166;28;20215;-73
2022/07/19 07:09:01;;;;;;;8.17;7.20;;;;;;;34.97;25.49;101605.91;5059192;28;20425;-73
2022/07/19 07:11:26;;;;;;;10.10;7.60;;;;;;;36.34;23.87;101610.81;5059702;28;20264;-80
2022/07/19 07:13:51;;;;;;;10.87;7.40;;;;;;;36.42;23.67;101611.00;5058806;28;20196;-76
2022/07/19 07:16:17;;;;;;;9.53;7.30;;;;;;;37.14;22.85;101605.63;5058731;28;20219;-78
2022/07/19 07:18:42;;;;;;;8.90;7.20;;;;;;;35.95;24.60;101604.22;5059294;28;20220;-80
2022/07/19 07:21:08;;;;;;;8.33;7.40;;;;;;;35.87;25.00;101613.88;5058995;28;20247;-75
2022/07/19 07:23:33;;;;;;;8.20;7.40;;;;;;;35.53;24.72;101610.38;5058471;28;20534;-73
2022/07/19 07:25:59;;;;;;;7.43;6.70;;;;;;;36.64;24.00;101602.84;5059125;28;20267;-72
2022/07/19 07:28:24;;;;;;;8.50;7.37;;;;;;;36.04;23.85;101607.00;5058552;28;20180;-74
2022/07/19 07:30:49;;;;;;;9.20;7.23;;;;;;;35.35;24.86;101615.50;5058553;28;20169;-72
2022/07/19 07:33:15;;;;;;;8.10;6.50;;;;;;;35.58;24.81;101610.88;5058654;28;20207;-73
2022/07/19 07:35:40;;;;;;;10.57;6.50;;;;;;;36.44;23.18;101610.00;5058356;28;20219;-73
2022/07/19 07:38:05;;;;;;;7.23;6.53;;;;;;;36.97;23.03;101599.00;5058298;28;20175;-73
2022/07/19 07:40:31;;;;;;;7.50;6.80;;;;;;;34.83;24.92;101607.88;5058871;28;20169;-74
2022/07/19 07:42:56;;;;;;;8.00;6.00;;;;;;;35.96;23.53;101616.81;5058452;28;20208;-74
2022/07/19 07:45:22;;;;;;;6.77;6.17;;;;;;;35.29;24.57;101615.94;5058203;28;20500;-73
2022/07/19 07:47:47;;;;;;;9.37;6.37;;;;;;;35.31;25.43;101616.69;5058762;28;20175;-74
2022/07/19 07:50:12;;;;;;;9.00;6.60;;;;;;;35.43;24.47;101609.44;5058512;28;20569;-73
2022/07/19 07:52:38;;;;;;;9.60;6.93;;;;;;;35.38;24.44;101607.94;5058112;28;20259;-80
2022/07/19 07:55:04;;;;;;;9.20;6.40;;;;;;;34.51;26.72;101604.97;5057995;28;20220;-80
2022/07/19 07:57:30;;;;;;;7.13;6.43;;;;;;;34.50;26.29;101604.09;5057356;28;20181;-82
2022/07/19 07:59:55;;;;;;;8.90;6.60;;;;;;;36.21;24.33;101591.09;5057791;28;20173;-77
2022/07/19 08:02:20;;;;;;;9.30;6.97;;;;;;;36.52;24.54;101596.63;5058103;28;20165;-79
2022/07/19 08:04:46;;;;;;;6.60;6.10;;;;;;;37.47;22.46;101583.69;5057939;28;20193;-85
2022/07/19 08:07:11;;;;;;;6.80;6.20;;;;;;;37.66;22.66;101588.28;5058579;28;20197;-85
2022/07/19 08:09:36;;;;;;;9.23;6.43;;;;;;;36.16;23.68;101588.81;5057882;28;20441;-77
2022/07/19 08:12:02;;;;;;;8.30;5.93;;;;;;;37.73;21.68;101586.72;5057815;28;20315;-76
2022/07/19 08:14:28;;;;;;;6.37;5.77;;;;;;;36.32;23.24;101593.81;5058056;28;20196;-77
2022/07/19 08:16:54;;;;;;;6.50;5.90;;;;;;;35.57;24.44;101592.84;5057680;28;20168;-77
2022/07/19 08:19:19;;;;;;;7.00;5.83;;;;;;;36.85;22.96;101583.81;5057738;28;20666;-77
2022/07/19 08:21:44;;;;;;;8.63;6.10;;;;;;;35.84;24.05;101584.28;5058297;28;20542;-79
2022/07/19 08:24:10;;;;;;;7.43;6.47;;;;;;;35.21;25.45;101586.78;5058403;28;20191;-77
2022/07/19 08:26:35;;;;;;;7.00;6.30;;;;;;;35.88;24.34;101580.31;5058244;28;20183;-77
2022/07/19 08:29:00;;;;;;;6.30;5.80;;;;;;;36.69;23.09;101576.13;5058236;28;20165;-78
2022/07/19 08:31:26;;;;;;;7.03;5.90;;;;;;;37.00;23.09;101565.25;5057431;28;20192;-75
2022/07/19 08:33:51;;;;;;;7.20;6.17;;;;;;;35.49;25.11;101568.25;5056697;28;20168;-75
2022/07/19 08:36:16;;;;;;;9.00;6.13;;;;;;;36.77;23.62;101559.16;5057919;28;20545;-73
2022/07/19 08:38:42;;;;;;;6.77;6.13;;;;;;;36.25;23.74;101562.69;5057366;28;20213;-73
2022/07/19 08:41:08;;;;;;;7.83;6.30;;;;;;;36.47;23.09;101564.44;5057745;28;20150;-73
2022/07/19 08:43:33;;;;;;;8.20;5.90;;;;;;;36.49;23.38;101559.72;5057939;28;20173;-73
2022/07/19 08:46:03;;;;;;;6.90;6.20;;;;;;;35.97;24.00;101556.97;5057581;28;20646;-74
2022/07/19 08:48:34;;;;;;;7.67;5.97;;;;;;;35.97;23.68;101559.69;5057641;28;20169;-74
2022/07/19 08:51:00;;;;;;;6.47;5.80;;;;;;;35.72;23.11;101563.59;5057527;28;20411;-75
2022/07/19 08:53:29;;;;;;;7.30;6.17;;;;;;;37.56;21.47;101556.50;5057520;28;20471;-73
2022/07/19 08:55:54;;;;;;;6.43;5.70;;;;;;;36.58;22.12;101556.19;5058139;28;20417;-73
2022/07/19 08:58:20;;;;;;;6.93;5.93;;;;;;;36.33;22.13;101551.22;5057515;28;20419;-74
2022/07/19 09:00:45;;;;;;;8.53;6.17;;;;;;;36.66;21.46;101549.25;5057461;28;20565;-75
2022/07/19 09:03:12;;;;;;;6.93;6.00;;;;;;;37.66;20.75;101551.06;5058087;28;20157;-74
2022/07/19 09:05:37;;;;;;;8.40;5.23;;;;;;;35.13;23.69;101554.88;5057167;28;20219;-74
2022/07/19 09:08:11;;;;;;;8.07;5.53;;;;;;;36.97;21.87;101555.53;5057366;28;20792;-74
2022/07/19 09:10:39;;;;;;;5.83;5.20;;;;;;;36.49;21.83;101551.56;5057371;28;20189;-73
2022/07/19 09:13:08;;;;;;;5.87;5.33;;;;;;;37.40;21.26;101554.34;5057270;28;20491;-73
2022/07/19 09:15:42;;;;;;;6.20;5.00;;;;;;;38.28;20.82;101553.47;5057609;28;20448;-73
2022/07/19 09:18:30;;;;;;;8.73;5.63;;;;;;;38.62;20.67;101552.03;5057334;28;20663;-74
2022/07/19 09:20:58;;;;;;;6.13;5.10;;;;;;;37.47;21.73;101561.91;5057396;28;20416;-74
2022/07/19 09:23:24;;;;;;;6.50;5.13;;;;;;;36.50;22.44;101561.44;5057160;28;20420;-73
2022/07/19 09:25:51;;;;;;;5.97;5.23;;;;;;;38.14;21.75;101554.75;5056663;28;20430;-82
2022/07/19 09:28:18;;;;;;;7.57;5.37;;;;;;;36.53;22.95;101549.47;5057478;28;20166;-81
2022/07/19 09:30:52;;;;;;;6.07;5.10;;;;;;;37.00;22.26;101555.22;5057198;28;20506;-77
2022/07/19 09:33:23;;;;;;;6.60;5.37;;;;;;;38.19;20.70;101554.31;5056855;28;20467;-78
2022/07/19 09:35:50;;;;;;;7.10;5.20;;;;;;;38.17;20.28;101549.03;5057085;28;20439;-77
2022/07/19 09:38:22;;;;;;;7.00;5.47;;;;;;;37.89;21.20;101548.06;5058302;28;20408;-80
2022/07/19 09:40:49;;;;;;;6.43;5.33;;;;;;;38.68;20.29;101546.00;5060726;28;20844;-80
2022/07/19 09:43:15;;;;;;;5.83;4.97;;;;;;;39.39;17.93;101536.25;5060536;28;20426;-75
2022/07/19 09:45:40;;;;;;;4.80;4.40;;;;;;;39.28;18.11;101547.41;5061085;28;20416;-75
2022/07/19 09:48:05;;;;;;;6.83;5.00;;;;;;;38.28;18.65;101548.03;5060472;28;20870;-74
2022/07/19 09:50:31;;;;;;;5.40;5.00;;;;;;;37.94;19.45;101551.19;5060346;28;20173;-75
2022/07/19 09:53:03;;;;;;;6.00;5.37;;;;;;;38.59;18.67;101542.28;5060579;28;20197;-74
2022/07/19 09:55:29;;;;;;;6.53;5.03;;;;;;;37.95;18.85;101550.19;5060554;28;20173;-74
2022/07/19 09:57:56;;;;;;;5.33;4.70;;;;;;;38.53;18.78;101540.19;5060160;28;20470;-74
2022/07/19 10:00:24;;;;;;;5.77;5.10;;;;;;;38.99;17.74;101543.00;5060284;28;20172;-75
2022/07/19 10:02:53;;;;;;;8.20;5.30;;;;;;;39.12;18.64;101540.75;5060212;28;20442;-76
2022/07/19 10:05:19;;;;;;;5.20;4.80;;;;;;;38.53;18.31;101538.31;5060524;28;20420;-85
2022/07/19 10:07:44;;;;;;;5.33;4.73;;;;;;;39.08;18.83;101536.63;5060266;28;20715;-75
2022/07/19 10:10:12;;;;;;;4.90;4.50;;;;;;;36.95;20.45;101543.06;5059550;28;20161;-75
2022/07/19 10:12:40;;;;;;;5.93;5.37;;;;;;;37.33;20.57;101544.16;5060772;28;20200;-76
2022/07/19 10:15:07;;;;;;;6.97;4.93;;;;;;;37.68;19.96;101540.88;5060063;28;20416;-74
2022/07/19 10:17:36;;;;;;;5.87;5.20;;;;;;;37.09;21.27;101537.25;5060016;28;20418;-76
2022/07/19 10:20:03;;;;;;;5.37;4.97;;;;;;;38.39;20.08;101536.09;5060002;28;20400;-75
2022/07/19 10:22:29;;;;;;;6.07;5.30;;;;;;;38.82;19.22;101531.91;5059246;28;20554;-75
2022/07/19 10:24:59;;;;;;;5.93;5.33;;;;;;;38.66;20.33;101531.66;5059718;28;20764;-76
2022/07/19 10:27:24;;;;;;;4.97;4.57;;;;;;;39.58;18.96;101525.19;5060257;28;20168;-77
2022/07/19 10:29:58;;;;;;;6.27;5.70;;;;;;;39.71;18.28;101518.50;5059825;28;20400;-75
2022/07/19 10:32:31;;;;;;;6.20;5.17;;;;;;;39.56;18.88;101519.03;5059749;28;20196;-76
2022/07/19 10:35:16;;;;;;;10.13;5.37;;;;;;;38.63;20.16;101515.59;5059546;28;20412;-76
2022/07/19 10:37:42;;;;;;;7.13;5.63;;;;;;;39.78;18.93;101505.06;5059715;28;20387;-74
2022/07/19 10:40:08;;;;;;;5.17;4.67;;;;;;;36.49;22.04;101518.97;5059625;28;20420;-74
2022/07/19 10:42:33;;;;;;;5.83;5.30;;;;;;;37.66;20.68;101512.97;5059624;28;20659;-74
2022/07/19 10:45:02;;;;;;;9.37;5.20;;;;;;;37.90;21.62;101515.25;5059860;28;20184;-74
2022/07/19 10:47:39;;;;;;;5.03;4.63;;;;;;;38.72;18.90;101512.00;5059450;28;20176;-75
2022/07/19 10:50:06;;;;;;;5.20;4.67;;;;;;;35.01;21.96;101515.25;5058796;28;20490;-74
2022/07/19 10:52:33;;;;;;;5.40;4.90;;;;;;;36.79;21.24;101508.22;5059310;28;20745;-74
2022/07/19 10:55:23;;;;;;;5.07;4.67;;;;;;;34.68;22.91;101507.00;5059106;28;20597;-70
2022/07/19 10:58:06;;;;;;;5.67;5.17;;;;;;;35.98;21.39;101514.41;5059011;28;20473;-70
2022/07/19 11:00:40;;;;;;;6.77;5.17;;;;;;;36.06;21.75;101507.31;5059295;28;20416;-70
2022/07/19 11:03:21;;;;;;;9.03;4.93;;;;;;;39.06;18.66;101495.00;5059186;28;20762;-70
2022/07/19 11:05:53;;;;;;;6.40;5.37;;;;;;;38.29;19.15;101497.13;5059199;28;20485;-70
2022/07/19 11:08:36;;;;;;;5.27;4.87;;;;;;;37.79;19.48;101492.78;5059182;28;20461;-70
2022/07/19 11:11:11;;;;;;;7.37;5.63;;;;;;;37.12;19.75;101498.91;5059288;28;20472;-76
2022/07/19 11:13:38;;;;;;;5.47;4.97;;;;;;;37.44;20.38;101502.38;5058902;28;20434;-77
2022/07/19 11:16:04;;;;;;;7.30;5.23;;;;;;;36.60;21.23;101498.16;5059013;28;20723;-76